La Porsche — VY9305 — position and weather

sailwx.info

Track history (hours):
 
Tides and Currents Weather Stations Pressure Air Temp Water Temp Dewpoint Dewpoint Depression Visibility Wind Speed Wind Dir Waves Ship Positions

La Porsche

Last reported at 2017-Apr-20 11:30 UTC. Time now 2017-Apr-28 12:01 UTC.
Position N 50°52' W 127°51'.
Warning: this ship's position is 8 days out of date.

Length 22 m; draft 2.9 m.

Type: Fishing. MMSI: 316001649.

Date/timePositionNaut miles runAvg speedWind from/ knotsBaromVisibWave heightAir tempDewpointWater temp
2017-Apr-20 11:30N 50°52' W 127°51'4 7.6
2017-Apr-20 11:00N 50°51' W 127°45'4 7.3
2017-Apr-20 10:30N 50°49' W 127°40'4 7.3
2017-Apr-20 10:00N 50°48' W 127°34'4 7.7
2017-Apr-20 09:31N 50°47' W 127°29'4 6.9
2017-Apr-20 08:59N 50°43' W 127°29'0 1.0
2017-Apr-20 08:30N 50°43' W 127°29'0 0.0
2017-Apr-20 07:59N 50°43' W 127°29'0 0.0
2017-Apr-20 07:15N 50°43' W 127°29'0 0.0
2017-Apr-20 07:00N 50°43' W 127°29'0 0.0
2017-Apr-20 06:30N 50°43' W 127°29'0 0.0
2017-Apr-20 06:00N 50°43' W 127°29'0 0.0
2017-Apr-20 05:30N 50°43' W 127°29'0 0.0
2017-Apr-20 05:00N 50°43' W 127°29'0 0.0
2017-Apr-20 04:30N 50°43' W 127°29'0 0.0
2017-Apr-20 02:14N 50°43' W 127°29'0 0.0
2017-Apr-20 02:00N 50°43' W 127°29'0 0.0
2017-Apr-20 01:30N 50°43' W 127°29'0 0.0
2017-Apr-20 01:00N 50°43' W 127°29'0 0.0
2017-Apr-20 00:30N 50°43' W 127°29'0 0.0
2017-Apr-20 00:00N 50°43' W 127°29'0 0.0
2017-Apr-19 23:30N 50°43' W 127°29'0 0.0
2017-Apr-19 23:00N 50°43' W 127°29'0 0.0
2017-Apr-19 22:30N 50°43' W 127°29'0 0.0
2017-Apr-19 22:00N 50°43' W 127°29'0 0.0
2017-Apr-19 21:30N 50°43' W 127°29'0 0.0
2017-Apr-19 20:58N 50°43' W 127°29'0 0.0
2017-Apr-19 20:30N 50°43' W 127°29'0 0.0
2017-Apr-19 20:00N 50°43' W 127°29'0 0.0
2017-Apr-19 19:30N 50°43' W 127°29'0 0.0
2017-Apr-19 19:00N 50°43' W 127°29'0 0.0
2017-Apr-19 18:31N 50°43' W 127°29'0 0.0
2017-Apr-19 18:00N 50°43' W 127°29'0 0.0
2017-Apr-19 17:30N 50°43' W 127°29'0 0.0
2017-Apr-19 17:01N 50°43' W 127°29'0 0.0
2017-Apr-19 16:28N 50°43' W 127°29'0 0.0
2017-Apr-19 15:58N 50°43' W 127°29'0 0.0
2017-Apr-19 15:29N 50°43' W 127°29'0 0.0
2017-Apr-19 14:48N 50°43' W 127°29'0 0.0
2017-Apr-19 14:21N 50°43' W 127°29'0 0.0
2017-Apr-19 13:23N 50°43' W 127°29'0 0.0
2017-Apr-19 13:00N 50°43' W 127°29'0 0.0
2017-Apr-19 12:30N 50°43' W 127°29'0 0.0
2017-Apr-19 12:00N 50°43' W 127°29'0 0.0
2017-Apr-19 11:30N 50°43' W 127°29'0 0.0
2017-Apr-19 11:00N 50°43' W 127°29'0 0.0
2017-Apr-19 10:29N 50°43' W 127°29'0 0.0
2017-Apr-19 09:59N 50°43' W 127°29'0 0.0
2017-Apr-19 09:30N 50°43' W 127°29'0 0.0
2017-Apr-19 08:59N 50°43' W 127°29'0 0.0
2017-Apr-19 08:26N 50°43' W 127°29'0 0.0
2017-Apr-19 08:00N 50°43' W 127°29'0 0.0
2017-Apr-19 06:25N 50°43' W 127°29'0 0.0
2017-Apr-19 05:55N 50°43' W 127°29'0 0.0
2017-Apr-19 05:20N 50°43' W 127°29'0 0.0
2017-Apr-19 04:58N 50°43' W 127°29'0 0.0
2017-Apr-19 04:29N 50°43' W 127°29'0 0.0
2017-Apr-19 04:01N 50°43' W 127°29'0 0.0
2017-Apr-19 02:32N 50°43' W 127°29'0 0.0
2017-Apr-19 01:51N 50°43' W 127°29'0 0.0
2017-Apr-19 01:28N 50°43' W 127°29'0 0.0
2017-Apr-19 01:00N 50°43' W 127°29'0 0.0
2017-Apr-19 00:30N 50°43' W 127°29'0 0.0
2017-Apr-18 23:58N 50°43' W 127°29'0 0.0
2017-Apr-18 23:30N 50°43' W 127°29'0 0.0
2017-Apr-18 23:00N 50°43' W 127°29'0 0.0
2017-Apr-18 22:30N 50°43' W 127°29'0 0.0
2017-Apr-18 21:58N 50°43' W 127°29'0 0.0
2017-Apr-18 21:30N 50°43' W 127°29'0 0.0
2017-Apr-18 20:59N 50°43' W 127°29'0 0.0
2017-Apr-18 18:21N 50°43' W 127°29'0 0.0
2017-Apr-18 17:59N 50°43' W 127°29'0 0.0
2017-Apr-18 17:26N 50°43' W 127°29'0 0.8
2017-Apr-18 17:00N 50°43' W 127°29'3 6.9
2017-Apr-18 16:31N 50°46' W 127°29'4 7.4
2017-Apr-18 16:00N 50°48' W 127°34'4 7.6
2017-Apr-18 15:30N 50°50' W 127°40'4 7.6
2017-Apr-18 15:00N 50°51' W 127°46'4 7.6
2017-Apr-18 14:30N 50°52' W 127°51'  
2017-Apr-15 12:59N 50°52' W 127°51'3 7.1
2017-Apr-15 12:30N 50°51' W 127°46'4 7.5
2017-Apr-15 12:00N 50°50' W 127°40'4 7.3
2017-Apr-15 11:30N 50°48' W 127°35'4 7.2
2017-Apr-15 11:00N 50°47' W 127°29'3 6.7
2017-Apr-15 10:30N 50°43' W 127°29'1 1.7
2017-Apr-15 09:57N 50°43' W 127°29'0 0.0
2017-Apr-15 09:30N 50°43' W 127°29'0 0.0
2017-Apr-15 09:00N 50°43' W 127°29'0 0.0
2017-Apr-15 08:30N 50°43' W 127°29'0 0.0
2017-Apr-15 08:00N 50°43' W 127°29'0 0.0
2017-Apr-15 07:30N 50°43' W 127°29'0 0.0
2017-Apr-15 07:00N 50°43' W 127°29'0 0.0
2017-Apr-15 06:30N 50°43' W 127°29'0 0.0
2017-Apr-15 06:00N 50°43' W 127°29'0 0.0
2017-Apr-15 05:30N 50°43' W 127°29'0 0.0
2017-Apr-15 05:00N 50°43' W 127°29'0 0.0
2017-Apr-15 04:30N 50°43' W 127°29'0 0.0
2017-Apr-15 04:00N 50°43' W 127°29'0 0.0
2017-Apr-15 03:30N 50°43' W 127°29'0 0.0
2017-Apr-15 03:00N 50°43' W 127°29'0 0.0
2017-Apr-15 02:30N 50°43' W 127°29'0 0.0
2017-Apr-15 02:00N 50°43' W 127°29'0 0.0
2017-Apr-15 01:30N 50°43' W 127°29'0 0.0
2017-Apr-15 00:59N 50°43' W 127°29'0 0.0
2017-Apr-15 00:30N 50°43' W 127°29'0 0.0
2017-Apr-15 00:00N 50°43' W 127°29'0 0.0
2017-Apr-14 23:30N 50°43' W 127°29'0 0.0
2017-Apr-14 23:00N 50°43' W 127°29'0 0.0
2017-Apr-14 22:30N 50°43' W 127°29'0 0.2
2017-Apr-14 22:00N 50°43' W 127°29'1 1.6
2017-Apr-14 21:30N 50°43' W 127°28'0 0.4
2017-Apr-14 20:20N 50°43' W 127°28'1 2.9
2017-Apr-14 20:00N 50°44' W 127°28'3 5.9
2017-Apr-14 19:30N 50°46' W 127°24'4 7.7
2017-Apr-14 19:00N 50°43' W 127°19'4 7.7
2017-Apr-14 18:29N 50°40' W 127°15'70 8.1
2017-Apr-14 09:53N 50°21' W 125°30'3 7.0
2017-Apr-14 09:30N 50°20' W 125°26'5 8.7
2017-Apr-14 08:55N 50°15' W 125°23'4 8.9
2017-Apr-14 08:31N 50°11' W 125°22'5 9.2
2017-Apr-14 08:00N 50°07' W 125°19'611.7
2017-Apr-14 07:30N 50°03' W 125°14'611.0
2017-Apr-14 07:00N 49°58' W 125°10'4 9.0
2017-Apr-14 06:31N 49°55' W 125°05'4 8.2
2017-Apr-14 06:00N 49°52' W 124°59'4 7.7
2017-Apr-14 05:31N 49°50' W 124°54'4 8.2
2017-Apr-14 05:00N 49°48' W 124°49'4 8.4
2017-Apr-14 04:30N 49°45' W 124°44'4 8.5
2017-Apr-14 04:00N 49°42' W 124°39'5 9.2
2017-Apr-14 03:30N 49°40' W 124°34'5 9.5
2017-Apr-14 03:00N 49°37' W 124°27'4 8.7
2017-Apr-14 02:30N 49°35' W 124°22'5 9.7
2017-Apr-14 02:00N 49°32' W 124°15'5 9.6
2017-Apr-14 01:30N 49°29' W 124°09'4 8.7
2017-Apr-14 01:00N 49°27' W 124°04'4 9.0
2017-Apr-14 00:30N 49°26' W 123°57'4 8.3
2017-Apr-14 00:00N 49°24' W 123°51'4 7.8
2017-Apr-13 23:30N 49°23' W 123°46'4 7.8
2017-Apr-13 23:00N 49°21' W 123°40'4 8.3
2017-Apr-13 22:30N 49°20' W 123°34'4 8.3
2017-Apr-13 22:00N 49°18' W 123°28'4 8.3
2017-Apr-13 21:30N 49°17' W 123°22'4 8.0
2017-Apr-13 21:00N 49°15' W 123°16'5 9.5
2017-Apr-13 20:30N 49°13' W 123°10'4 8.4
2017-Apr-13 20:00N 49°12' W 123°04'4 8.2
2017-Apr-13 19:30N 49°11' W 122°58'2 3.5
2017-Apr-13 19:00N 49°10' W 122°55'0 0.8
2017-Apr-13 18:30N 49°11' W 122°55'0 0.0
2017-Apr-13 18:00N 49°11' W 122°55'0 0.0
2017-Apr-13 17:30N 49°11' W 122°55'0 0.0
2017-Apr-13 17:00N 49°11' W 122°55'0 0.0
2017-Apr-13 16:30N 49°11' W 122°55'0 0.0
2017-Apr-13 16:00N 49°11' W 122°55'0 0.0
2017-Apr-13 15:30N 49°11' W 122°55'0 0.0
2017-Apr-13 15:01N 49°11' W 122°55'0 0.0
2017-Apr-13 14:00N 49°11' W 122°55'0 0.0
2017-Apr-13 13:31N 49°11' W 122°55'0 0.0
2017-Apr-13 13:00N 49°11' W 122°55'0 0.0
2017-Apr-13 12:30N 49°11' W 122°55'0 0.0
2017-Apr-13 12:00N 49°11' W 122°55'0 0.0
2017-Apr-13 11:30N 49°11' W 122°55'0 0.0
2017-Apr-13 11:00N 49°11' W 122°55'0 0.0
2017-Apr-13 10:30N 49°11' W 122°55'0 0.0
2017-Apr-13 10:00N 49°11' W 122°55'0 0.0
2017-Apr-13 09:31N 49°11' W 122°55'0 0.0
2017-Apr-13 09:00N 49°11' W 122°55'0 0.0
2017-Apr-13 08:30N 49°11' W 122°55'0 0.0
2017-Apr-13 08:01N 49°11' W 122°55'0 0.0
2017-Apr-13 07:30N 49°11' W 122°55'0 0.0
2017-Apr-13 07:00N 49°11' W 122°55'0 0.0
2017-Apr-13 06:31N 49°11' W 122°55'0 0.0
2017-Apr-13 06:01N 49°11' W 122°55'0 0.0
2017-Apr-13 05:30N 49°11' W 122°55'0 0.0
2017-Apr-13 05:01N 49°11' W 122°55'0 0.0
2017-Apr-13 04:31N 49°11' W 122°55'0 0.0
2017-Apr-13 04:01N 49°11' W 122°55'0 0.0
2017-Apr-13 03:31N 49°11' W 122°55'0 0.1
2017-Apr-13 03:00N 49°11' W 122°55'0 0.1
2017-Apr-13 02:31N 49°11' W 122°55'0 0.0
2017-Apr-13 02:01N 49°11' W 122°55'0 0.0
2017-Apr-13 01:31N 49°11' W 122°55'0 0.0
2017-Apr-13 01:01N 49°11' W 122°55'0 0.0
2017-Apr-13 00:31N 49°11' W 122°55'0 0.0
2017-Apr-13 00:00N 49°11' W 122°55'0 0.0
2017-Apr-12 23:31N 49°11' W 122°55'0 0.0
2017-Apr-12 23:00N 49°11' W 122°55'0 0.0
2017-Apr-12 22:30N 49°11' W 122°55'0 0.0
2017-Apr-12 22:00N 49°11' W 122°55'0 0.0
2017-Apr-12 21:30N 49°11' W 122°55'0 0.0
2017-Apr-12 21:00N 49°11' W 122°55'0 0.0
2017-Apr-12 20:30N 49°11' W 122°55'0 0.0
2017-Apr-12 20:00N 49°11' W 122°55'0 0.0
2017-Apr-12 19:31N 49°11' W 122°55'0 0.0
2017-Apr-12 19:01N 49°11' W 122°55'0 0.0
2017-Apr-12 18:31N 49°11' W 122°55'0 0.0
2017-Apr-12 18:00N 49°11' W 122°55'0 0.0
2017-Apr-12 17:31N 49°11' W 122°55'0 0.0
2017-Apr-12 17:00N 49°11' W 122°55'0 0.0
2017-Apr-12 16:31N 49°11' W 122°55'0 0.0
2017-Apr-12 16:00N 49°11' W 122°55'0 0.0
2017-Apr-12 15:30N 49°11' W 122°55'0 0.0
2017-Apr-12 15:00N 49°11' W 122°55'0 0.0
2017-Apr-12 14:30N 49°11' W 122°55'0 0.0
2017-Apr-12 13:30N 49°11' W 122°55'0 0.0
2017-Apr-12 13:00N 49°11' W 122°55'0 0.0
2017-Apr-12 12:30N 49°11' W 122°55'0 0.0
2017-Apr-12 12:01N 49°11' W 122°55'0 0.0
2017-Apr-12 11:30N 49°11' W 122°55'0 0.0
2017-Apr-12 11:01N 49°11' W 122°55'0 0.0
2017-Apr-12 10:30N 49°11' W 122°55'0 0.0
2017-Apr-12 10:01N 49°11' W 122°55'0 0.0
2017-Apr-12 09:30N 49°11' W 122°55'0 0.0
2017-Apr-12 09:00N 49°11' W 122°55'0 0.0
2017-Apr-12 08:30N 49°11' W 122°55'0 0.0
2017-Apr-12 08:01N 49°11' W 122°55'0 0.0
2017-Apr-12 07:30N 49°11' W 122°55'0 0.0
2017-Apr-12 07:00N 49°11' W 122°55'0 0.0
2017-Apr-12 06:31N 49°11' W 122°55'0 0.0
2017-Apr-12 06:01N 49°11' W 122°55'0 0.0
2017-Apr-12 05:31N 49°11' W 122°55'0 0.0
2017-Apr-12 05:00N 49°11' W 122°55'0 0.0
2017-Apr-12 04:31N 49°11' W 122°55'0 0.0
2017-Apr-12 04:01N 49°11' W 122°55'0 0.0
2017-Apr-12 03:30N 49°11' W 122°55'0 0.0
2017-Apr-12 03:00N 49°11' W 122°55'0 0.0
2017-Apr-12 02:30N 49°11' W 122°55'0 0.0
2017-Apr-12 02:01N 49°11' W 122°55'0 0.0
2017-Apr-12 01:30N 49°11' W 122°55'0 0.0
2017-Apr-12 01:00N 49°11' W 122°55'0 0.0
2017-Apr-12 00:30N 49°11' W 122°55'0 0.0
2017-Apr-12 00:01N 49°11' W 122°55'0 0.0
2017-Apr-11 23:31N 49°11' W 122°55'0 0.0
2017-Apr-11 23:01N 49°11' W 122°55'0 0.0
2017-Apr-11 22:30N 49°11' W 122°55'0 0.0
2017-Apr-11 22:00N 49°11' W 122°55'0 0.0
2017-Apr-11 21:30N 49°11' W 122°55'0 0.0
2017-Apr-11 21:00N 49°11' W 122°55'0 0.0
2017-Apr-11 20:30N 49°11' W 122°55'0 0.0
2017-Apr-11 20:00N 49°11' W 122°55'0 0.0
2017-Apr-11 19:31N 49°11' W 122°55'0 0.0
2017-Apr-11 19:01N 49°11' W 122°55'0 0.0
2017-Apr-11 18:31N 49°11' W 122°55'0 0.0
2017-Apr-11 18:00N 49°11' W 122°55'0 0.0
2017-Apr-11 17:31N 49°11' W 122°55'0 0.0
2017-Apr-11 17:00N 49°11' W 122°55'0 0.0
2017-Apr-11 16:30N 49°11' W 122°55'0 0.0
2017-Apr-11 16:00N 49°11' W 122°55'0 0.0
2017-Apr-11 15:30N 49°11' W 122°55'0 0.0
2017-Apr-11 15:00N 49°11' W 122°55'0 0.0
2017-Apr-11 14:30N 49°11' W 122°55'0 0.0
2017-Apr-11 13:31N 49°11' W 122°55'0 0.0
2017-Apr-11 13:00N 49°11' W 122°55'0 0.0
2017-Apr-11 12:31N 49°11' W 122°55'0 0.0
2017-Apr-11 12:00N 49°11' W 122°55'0 0.0
2017-Apr-11 11:30N 49°11' W 122°55'0 0.0
2017-Apr-11 11:00N 49°11' W 122°55'0 0.0
2017-Apr-11 10:31N 49°11' W 122°55'0 0.0
2017-Apr-11 10:01N 49°11' W 122°55'0 0.0
2017-Apr-11 09:30N 49°11' W 122°55'0 0.0
2017-Apr-11 09:00N 49°11' W 122°55'0 0.0
2017-Apr-11 08:30N 49°11' W 122°55'0 0.0
2017-Apr-11 08:00N 49°11' W 122°55'0 0.0
2017-Apr-11 07:30N 49°11' W 122°55'0 0.0
2017-Apr-11 07:00N 49°11' W 122°55'0 0.0
2017-Apr-11 06:30N 49°11' W 122°55'0 0.0
2017-Apr-11 06:01N 49°11' W 122°55'0 0.0
2017-Apr-11 05:30N 49°11' W 122°55'0 0.0
2017-Apr-11 05:00N 49°11' W 122°55'0 0.0
2017-Apr-11 04:30N 49°11' W 122°55'0 0.0
2017-Apr-11 04:00N 49°11' W 122°55'0 0.0
2017-Apr-11 03:31N 49°11' W 122°55'0 0.0
2017-Apr-11 03:00N 49°11' W 122°55'0 0.0
2017-Apr-11 02:30N 49°11' W 122°55'0 0.0
2017-Apr-11 02:00N 49°11' W 122°55'0 0.0
2017-Apr-11 01:31N 49°11' W 122°55'0 0.0
2017-Apr-11 01:00N 49°11' W 122°55'0 0.0
2017-Apr-11 00:31N 49°11' W 122°55'0 0.0
2017-Apr-11 00:00N 49°11' W 122°55'0 0.0
2017-Apr-10 23:30N 49°11' W 122°55'0 0.0
2017-Apr-10 23:01N 49°11' W 122°55'0 0.0
2017-Apr-10 22:30N 49°11' W 122°55'0 0.0
2017-Apr-10 22:00N 49°11' W 122°55'0 0.0
2017-Apr-10 21:30N 49°11' W 122°55'0 0.0
2017-Apr-10 21:01N 49°11' W 122°55'0 0.0
2017-Apr-10 20:30N 49°11' W 122°55'0 0.0
2017-Apr-10 20:01N 49°11' W 122°55'0 0.0
2017-Apr-10 19:30N 49°11' W 122°55'0 0.0
2017-Apr-10 19:01N 49°11' W 122°55'0 0.0
2017-Apr-10 18:31N 49°11' W 122°55'0 0.0
2017-Apr-10 18:00N 49°11' W 122°55'0 0.0
2017-Apr-10 17:31N 49°11' W 122°55'0 0.0
2017-Apr-10 17:01N 49°11' W 122°55'0 0.0
2017-Apr-10 16:31N 49°11' W 122°55'0 0.0
2017-Apr-10 16:01N 49°11' W 122°55'0 0.0
2017-Apr-10 15:31N 49°11' W 122°55'0 0.0
2017-Apr-10 15:01N 49°11' W 122°55'0 0.0
2017-Apr-10 14:31N 49°11' W 122°55'0 0.0
2017-Apr-10 13:31N 49°11' W 122°55'0 0.0
2017-Apr-10 13:00N 49°11' W 122°55'0 0.0
2017-Apr-10 12:31N 49°11' W 122°55'0 0.0
2017-Apr-10 12:01N 49°11' W 122°55'0 0.0
2017-Apr-10 11:31N 49°11' W 122°55'  
Track history (hours):
 
Tides and Currents Weather Stations Pressure Air Temp Water Temp Dewpoint Dewpoint Depression Visibility Wind Speed Wind Dir Waves Ship Positions

La Porsche

Last reported at 2017-Apr-20 11:30 UTC. Time now 2017-Apr-28 12:01 UTC.
Position N 50°52' W 127°51'.
Warning: this ship's position is 8 days out of date.

Length 22 m; draft 2.9 m.

Type: Fishing. MMSI: 316001649.

Date/timePositionNaut miles runAvg speedWind from/ knotsBaromVisibWave heightAir tempDewpointWater temp
2017-Apr-20 11:30N 50°52' W 127°51'4 7.6
2017-Apr-20 11:00N 50°51' W 127°45'4 7.3
2017-Apr-20 10:30N 50°49' W 127°40'4 7.3
2017-Apr-20 10:00N 50°48' W 127°34'4 7.7
2017-Apr-20 09:31N 50°47' W 127°29'4 6.9
2017-Apr-20 08:59N 50°43' W 127°29'0 1.0
2017-Apr-20 08:30N 50°43' W 127°29'0 0.0
2017-Apr-20 07:59N 50°43' W 127°29'0 0.0
2017-Apr-20 07:15N 50°43' W 127°29'0 0.0
2017-Apr-20 07:00N 50°43' W 127°29'0 0.0
2017-Apr-20 06:30N 50°43' W 127°29'0 0.0
2017-Apr-20 06:00N 50°43' W 127°29'0 0.0
2017-Apr-20 05:30N 50°43' W 127°29'0 0.0
2017-Apr-20 05:00N 50°43' W 127°29'0 0.0
2017-Apr-20 04:30N 50°43' W 127°29'0 0.0
2017-Apr-20 02:14N 50°43' W 127°29'0 0.0
2017-Apr-20 02:00N 50°43' W 127°29'0 0.0
2017-Apr-20 01:30N 50°43' W 127°29'0 0.0
2017-Apr-20 01:00N 50°43' W 127°29'0 0.0
2017-Apr-20 00:30N 50°43' W 127°29'0 0.0
2017-Apr-20 00:00N 50°43' W 127°29'0 0.0
2017-Apr-19 23:30N 50°43' W 127°29'0 0.0
2017-Apr-19 23:00N 50°43' W 127°29'0 0.0
2017-Apr-19 22:30N 50°43' W 127°29'0 0.0
2017-Apr-19 22:00N 50°43' W 127°29'0 0.0
2017-Apr-19 21:30N 50°43' W 127°29'0 0.0
2017-Apr-19 20:58N 50°43' W 127°29'0 0.0
2017-Apr-19 20:30N 50°43' W 127°29'0 0.0
2017-Apr-19 20:00N 50°43' W 127°29'0 0.0
2017-Apr-19 19:30N 50°43' W 127°29'0 0.0
2017-Apr-19 19:00N 50°43' W 127°29'0 0.0
2017-Apr-19 18:31N 50°43' W 127°29'0 0.0
2017-Apr-19 18:00N 50°43' W 127°29'0 0.0
2017-Apr-19 17:30N 50°43' W 127°29'0 0.0
2017-Apr-19 17:01N 50°43' W 127°29'0 0.0
2017-Apr-19 16:28N 50°43' W 127°29'0 0.0
2017-Apr-19 15:58N 50°43' W 127°29'0 0.0
2017-Apr-19 15:29N 50°43' W 127°29'0 0.0
2017-Apr-19 14:48N 50°43' W 127°29'0 0.0
2017-Apr-19 14:21N 50°43' W 127°29'0 0.0
2017-Apr-19 13:23N 50°43' W 127°29'0 0.0
2017-Apr-19 13:00N 50°43' W 127°29'0 0.0
2017-Apr-19 12:30N 50°43' W 127°29'0 0.0
2017-Apr-19 12:00N 50°43' W 127°29'0 0.0
2017-Apr-19 11:30N 50°43' W 127°29'0 0.0
2017-Apr-19 11:00N 50°43' W 127°29'0 0.0
2017-Apr-19 10:29N 50°43' W 127°29'0 0.0
2017-Apr-19 09:59N 50°43' W 127°29'0 0.0
2017-Apr-19 09:30N 50°43' W 127°29'0 0.0
2017-Apr-19 08:59N 50°43' W 127°29'0 0.0
2017-Apr-19 08:26N 50°43' W 127°29'0 0.0
2017-Apr-19 08:00N 50°43' W 127°29'0 0.0
2017-Apr-19 06:25N 50°43' W 127°29'0 0.0
2017-Apr-19 05:55N 50°43' W 127°29'0 0.0
2017-Apr-19 05:20N 50°43' W 127°29'0 0.0
2017-Apr-19 04:58N 50°43' W 127°29'0 0.0
2017-Apr-19 04:29N 50°43' W 127°29'0 0.0
2017-Apr-19 04:01N 50°43' W 127°29'0 0.0
2017-Apr-19 02:32N 50°43' W 127°29'0 0.0
2017-Apr-19 01:51N 50°43' W 127°29'0 0.0
2017-Apr-19 01:28N 50°43' W 127°29'0 0.0
2017-Apr-19 01:00N 50°43' W 127°29'0 0.0
2017-Apr-19 00:30N 50°43' W 127°29'0 0.0
2017-Apr-18 23:58N 50°43' W 127°29'0 0.0
2017-Apr-18 23:30N 50°43' W 127°29'0 0.0
2017-Apr-18 23:00N 50°43' W 127°29'0 0.0
2017-Apr-18 22:30N 50°43' W 127°29'0 0.0
2017-Apr-18 21:58N 50°43' W 127°29'0 0.0
2017-Apr-18 21:30N 50°43' W 127°29'0 0.0
2017-Apr-18 20:59N 50°43' W 127°29'0 0.0
2017-Apr-18 18:21N 50°43' W 127°29'0 0.0
2017-Apr-18 17:59N 50°43' W 127°29'0 0.0
2017-Apr-18 17:26N 50°43' W 127°29'0 0.8
2017-Apr-18 17:00N 50°43' W 127°29'3 6.9
2017-Apr-18 16:31N 50°46' W 127°29'4 7.4
2017-Apr-18 16:00N 50°48' W 127°34'4 7.6
2017-Apr-18 15:30N 50°50' W 127°40'4 7.6
2017-Apr-18 15:00N 50°51' W 127°46'4 7.6
2017-Apr-18 14:30N 50°52' W 127°51'  
2017-Apr-15 12:59N 50°52' W 127°51'3 7.1
2017-Apr-15 12:30N 50°51' W 127°46'4 7.5
2017-Apr-15 12:00N 50°50' W 127°40'4 7.3
2017-Apr-15 11:30N 50°48' W 127°35'4 7.2
2017-Apr-15 11:00N 50°47' W 127°29'3 6.7
2017-Apr-15 10:30N 50°43' W 127°29'1 1.7
2017-Apr-15 09:57N 50°43' W 127°29'0 0.0
2017-Apr-15 09:30N 50°43' W 127°29'0 0.0
2017-Apr-15 09:00N 50°43' W 127°29'0 0.0
2017-Apr-15 08:30N 50°43' W 127°29'0 0.0
2017-Apr-15 08:00N 50°43' W 127°29'0 0.0
2017-Apr-15 07:30N 50°43' W 127°29'0 0.0
2017-Apr-15 07:00N 50°43' W 127°29'0 0.0
2017-Apr-15 06:30N 50°43' W 127°29'0 0.0
2017-Apr-15 06:00N 50°43' W 127°29'0 0.0
2017-Apr-15 05:30N 50°43' W 127°29'0 0.0
2017-Apr-15 05:00N 50°43' W 127°29'0 0.0
2017-Apr-15 04:30N 50°43' W 127°29'0 0.0
2017-Apr-15 04:00N 50°43' W 127°29'0 0.0
2017-Apr-15 03:30N 50°43' W 127°29'0 0.0
2017-Apr-15 03:00N 50°43' W 127°29'0 0.0
2017-Apr-15 02:30N 50°43' W 127°29'0 0.0
2017-Apr-15 02:00N 50°43' W 127°29'0 0.0
2017-Apr-15 01:30N 50°43' W 127°29'0 0.0
2017-Apr-15 00:59N 50°43' W 127°29'0 0.0
2017-Apr-15 00:30N 50°43' W 127°29'0 0.0
2017-Apr-15 00:00N 50°43' W 127°29'0 0.0
2017-Apr-14 23:30N 50°43' W 127°29'0 0.0
2017-Apr-14 23:00N 50°43' W 127°29'0 0.0
2017-Apr-14 22:30N 50°43' W 127°29'0 0.2
2017-Apr-14 22:00N 50°43' W 127°29'1 1.6
2017-Apr-14 21:30N 50°43' W 127°28'0 0.4
2017-Apr-14 20:20N 50°43' W 127°28'1 2.9
2017-Apr-14 20:00N 50°44' W 127°28'3 5.9
2017-Apr-14 19:30N 50°46' W 127°24'4 7.7
2017-Apr-14 19:00N 50°43' W 127°19'4 7.7
2017-Apr-14 18:29N 50°40' W 127°15'70 8.1
2017-Apr-14 09:53N 50°21' W 125°30'3 7.0
2017-Apr-14 09:30N 50°20' W 125°26'5 8.7
2017-Apr-14 08:55N 50°15' W 125°23'4 8.9
2017-Apr-14 08:31N 50°11' W 125°22'5 9.2
2017-Apr-14 08:00N 50°07' W 125°19'611.7
2017-Apr-14 07:30N 50°03' W 125°14'611.0
2017-Apr-14 07:00N 49°58' W 125°10'4 9.0
2017-Apr-14 06:31N 49°55' W 125°05'4 8.2
2017-Apr-14 06:00N 49°52' W 124°59'4 7.7
2017-Apr-14 05:31N 49°50' W 124°54'4 8.2
2017-Apr-14 05:00N 49°48' W 124°49'4 8.4
2017-Apr-14 04:30N 49°45' W 124°44'4 8.5
2017-Apr-14 04:00N 49°42' W 124°39'5 9.2
2017-Apr-14 03:30N 49°40' W 124°34'5 9.5
2017-Apr-14 03:00N 49°37' W 124°27'4 8.7
2017-Apr-14 02:30N 49°35' W 124°22'5 9.7
2017-Apr-14 02:00N 49°32' W 124°15'5 9.6
2017-Apr-14 01:30N 49°29' W 124°09'4 8.7
2017-Apr-14 01:00N 49°27' W 124°04'4 9.0
2017-Apr-14 00:30N 49°26' W 123°57'4 8.3
2017-Apr-14 00:00N 49°24' W 123°51'4 7.8
2017-Apr-13 23:30N 49°23' W 123°46'4 7.8
2017-Apr-13 23:00N 49°21' W 123°40'4 8.3
2017-Apr-13 22:30N 49°20' W 123°34'4 8.3
2017-Apr-13 22:00N 49°18' W 123°28'4 8.3
2017-Apr-13 21:30N 49°17' W 123°22'4 8.0
2017-Apr-13 21:00N 49°15' W 123°16'5 9.5
2017-Apr-13 20:30N 49°13' W 123°10'4 8.4
2017-Apr-13 20:00N 49°12' W 123°04'4 8.2
2017-Apr-13 19:30N 49°11' W 122°58'2 3.5
2017-Apr-13 19:00N 49°10' W 122°55'0 0.8
2017-Apr-13 18:30N 49°11' W 122°55'0 0.0
2017-Apr-13 18:00N 49°11' W 122°55'0 0.0
2017-Apr-13 17:30N 49°11' W 122°55'0 0.0
2017-Apr-13 17:00N 49°11' W 122°55'0 0.0
2017-Apr-13 16:30N 49°11' W 122°55'0 0.0
2017-Apr-13 16:00N 49°11' W 122°55'0 0.0
2017-Apr-13 15:30N 49°11' W 122°55'0 0.0
2017-Apr-13 15:01N 49°11' W 122°55'0 0.0
2017-Apr-13 14:00N 49°11' W 122°55'0 0.0
2017-Apr-13 13:31N 49°11' W 122°55'0 0.0
2017-Apr-13 13:00N 49°11' W 122°55'0 0.0
2017-Apr-13 12:30N 49°11' W 122°55'0 0.0
2017-Apr-13 12:00N 49°11' W 122°55'0 0.0
2017-Apr-13 11:30N 49°11' W 122°55'0 0.0
2017-Apr-13 11:00N 49°11' W 122°55'0 0.0
2017-Apr-13 10:30N 49°11' W 122°55'0 0.0
2017-Apr-13 10:00N 49°11' W 122°55'0 0.0
2017-Apr-13 09:31N 49°11' W 122°55'0 0.0
2017-Apr-13 09:00N 49°11' W 122°55'0 0.0
2017-Apr-13 08:30N 49°11' W 122°55'0 0.0
2017-Apr-13 08:01N 49°11' W 122°55'0 0.0
2017-Apr-13 07:30N 49°11' W 122°55'0 0.0
2017-Apr-13 07:00N 49°11' W 122°55'0 0.0
2017-Apr-13 06:31N 49°11' W 122°55'0 0.0
2017-Apr-13 06:01N 49°11' W 122°55'0 0.0
2017-Apr-13 05:30N 49°11' W 122°55'0 0.0
2017-Apr-13 05:01N 49°11' W 122°55'0 0.0
2017-Apr-13 04:31N 49°11' W 122°55'0 0.0
2017-Apr-13 04:01N 49°11' W 122°55'0 0.0
2017-Apr-13 03:31N 49°11' W 122°55'0 0.1
2017-Apr-13 03:00N 49°11' W 122°55'0 0.1
2017-Apr-13 02:31N 49°11' W 122°55'0 0.0
2017-Apr-13 02:01N 49°11' W 122°55'0 0.0
2017-Apr-13 01:31N 49°11' W 122°55'0 0.0
2017-Apr-13 01:01N 49°11' W 122°55'0 0.0
2017-Apr-13 00:31N 49°11' W 122°55'0 0.0
2017-Apr-13 00:00N 49°11' W 122°55'0 0.0
2017-Apr-12 23:31N 49°11' W 122°55'0 0.0
2017-Apr-12 23:00N 49°11' W 122°55'0 0.0
2017-Apr-12 22:30N 49°11' W 122°55'0 0.0
2017-Apr-12 22:00N 49°11' W 122°55'0 0.0
2017-Apr-12 21:30N 49°11' W 122°55'0 0.0
2017-Apr-12 21:00N 49°11' W 122°55'0 0.0
2017-Apr-12 20:30N 49°11' W 122°55'0 0.0
2017-Apr-12 20:00N 49°11' W 122°55'0 0.0
2017-Apr-12 19:31N 49°11' W 122°55'0 0.0
2017-Apr-12 19:01N 49°11' W 122°55'0 0.0
2017-Apr-12 18:31N 49°11' W 122°55'0 0.0
2017-Apr-12 18:00N 49°11' W 122°55'0 0.0
2017-Apr-12 17:31N 49°11' W 122°55'0 0.0
2017-Apr-12 17:00N 49°11' W 122°55'0 0.0
2017-Apr-12 16:31N 49°11' W 122°55'0 0.0
2017-Apr-12 16:00N 49°11' W 122°55'0 0.0
2017-Apr-12 15:30N 49°11' W 122°55'0 0.0
2017-Apr-12 15:00N 49°11' W 122°55'0 0.0
2017-Apr-12 14:30N 49°11' W 122°55'0 0.0
2017-Apr-12 13:30N 49°11' W 122°55'0 0.0
2017-Apr-12 13:00N 49°11' W 122°55'0 0.0
2017-Apr-12 12:30N 49°11' W 122°55'0 0.0
2017-Apr-12 12:01N 49°11' W 122°55'0 0.0
2017-Apr-12 11:30N 49°11' W 122°55'0 0.0
2017-Apr-12 11:01N 49°11' W 122°55'0 0.0
2017-Apr-12 10:30N 49°11' W 122°55'0 0.0
2017-Apr-12 10:01N 49°11' W 122°55'0 0.0
2017-Apr-12 09:30N 49°11' W 122°55'0 0.0
2017-Apr-12 09:00N 49°11' W 122°55'0 0.0
2017-Apr-12 08:30N 49°11' W 122°55'0 0.0
2017-Apr-12 08:01N 49°11' W 122°55'0 0.0
2017-Apr-12 07:30N 49°11' W 122°55'0 0.0
2017-Apr-12 07:00N 49°11' W 122°55'0 0.0
2017-Apr-12 06:31N 49°11' W 122°55'0 0.0
2017-Apr-12 06:01N 49°11' W 122°55'0 0.0
2017-Apr-12 05:31N 49°11' W 122°55'0 0.0
2017-Apr-12 05:00N 49°11' W 122°55'0 0.0
2017-Apr-12 04:31N 49°11' W 122°55'0 0.0
2017-Apr-12 04:01N 49°11' W 122°55'0 0.0
2017-Apr-12 03:30N 49°11' W 122°55'0 0.0
2017-Apr-12 03:00N 49°11' W 122°55'0 0.0
2017-Apr-12 02:30N 49°11' W 122°55'0 0.0
2017-Apr-12 02:01N 49°11' W 122°55'0 0.0
2017-Apr-12 01:30N 49°11' W 122°55'0 0.0
2017-Apr-12 01:00N 49°11' W 122°55'0 0.0
2017-Apr-12 00:30N 49°11' W 122°55'0 0.0
2017-Apr-12 00:01N 49°11' W 122°55'0 0.0
2017-Apr-11 23:31N 49°11' W 122°55'0 0.0
2017-Apr-11 23:01N 49°11' W 122°55'0 0.0
2017-Apr-11 22:30N 49°11' W 122°55'0 0.0
2017-Apr-11 22:00N 49°11' W 122°55'0 0.0
2017-Apr-11 21:30N 49°11' W 122°55'0 0.0
2017-Apr-11 21:00N 49°11' W 122°55'0 0.0
2017-Apr-11 20:30N 49°11' W 122°55'0 0.0
2017-Apr-11 20:00N 49°11' W 122°55'0 0.0
2017-Apr-11 19:31N 49°11' W 122°55'0 0.0
2017-Apr-11 19:01N 49°11' W 122°55'0 0.0
2017-Apr-11 18:31N 49°11' W 122°55'0 0.0
2017-Apr-11 18:00N 49°11' W 122°55'0 0.0
2017-Apr-11 17:31N 49°11' W 122°55'0 0.0
2017-Apr-11 17:00N 49°11' W 122°55'0 0.0
2017-Apr-11 16:30N 49°11' W 122°55'0 0.0
2017-Apr-11 16:00N 49°11' W 122°55'0 0.0
2017-Apr-11 15:30N 49°11' W 122°55'0 0.0
2017-Apr-11 15:00N 49°11' W 122°55'0 0.0
2017-Apr-11 14:30N 49°11' W 122°55'0 0.0
2017-Apr-11 13:31N 49°11' W 122°55'0 0.0
2017-Apr-11 13:00N 49°11' W 122°55'0 0.0
2017-Apr-11 12:31N 49°11' W 122°55'0 0.0
2017-Apr-11 12:00N 49°11' W 122°55'0 0.0
2017-Apr-11 11:30N 49°11' W 122°55'0 0.0
2017-Apr-11 11:00N 49°11' W 122°55'0 0.0
2017-Apr-11 10:31N 49°11' W 122°55'0 0.0
2017-Apr-11 10:01N 49°11' W 122°55'0 0.0
2017-Apr-11 09:30N 49°11' W 122°55'0 0.0
2017-Apr-11 09:00N 49°11' W 122°55'0 0.0
2017-Apr-11 08:30N 49°11' W 122°55'0 0.0
2017-Apr-11 08:00N 49°11' W 122°55'0 0.0
2017-Apr-11 07:30N 49°11' W 122°55'0 0.0
2017-Apr-11 07:00N 49°11' W 122°55'0 0.0
2017-Apr-11 06:30N 49°11' W 122°55'0 0.0
2017-Apr-11 06:01N 49°11' W 122°55'0 0.0
2017-Apr-11 05:30N 49°11' W 122°55'0 0.0
2017-Apr-11 05:00N 49°11' W 122°55'0 0.0
2017-Apr-11 04:30N 49°11' W 122°55'0 0.0
2017-Apr-11 04:00N 49°11' W 122°55'0 0.0
2017-Apr-11 03:31N 49°11' W 122°55'0 0.0
2017-Apr-11 03:00N 49°11' W 122°55'0 0.0
2017-Apr-11 02:30N 49°11' W 122°55'0 0.0
2017-Apr-11 02:00N 49°11' W 122°55'0 0.0
2017-Apr-11 01:31N 49°11' W 122°55'0 0.0
2017-Apr-11 01:00N 49°11' W 122°55'0 0.0
2017-Apr-11 00:31N 49°11' W 122°55'0 0.0
2017-Apr-11 00:00N 49°11' W 122°55'0 0.0
2017-Apr-10 23:30N 49°11' W 122°55'0 0.0
2017-Apr-10 23:01N 49°11' W 122°55'0 0.0
2017-Apr-10 22:30N 49°11' W 122°55'0 0.0
2017-Apr-10 22:00N 49°11' W 122°55'0 0.0
2017-Apr-10 21:30N 49°11' W 122°55'0 0.0
2017-Apr-10 21:01N 49°11' W 122°55'0 0.0
2017-Apr-10 20:30N 49°11' W 122°55'0 0.0
2017-Apr-10 20:01N 49°11' W 122°55'0 0.0
2017-Apr-10 19:30N 49°11' W 122°55'0 0.0
2017-Apr-10 19:01N 49°11' W 122°55'0 0.0
2017-Apr-10 18:31N 49°11' W 122°55'0 0.0
2017-Apr-10 18:00N 49°11' W 122°55'0 0.0
2017-Apr-10 17:31N 49°11' W 122°55'0 0.0
2017-Apr-10 17:01N 49°11' W 122°55'0 0.0
2017-Apr-10 16:31N 49°11' W 122°55'0 0.0
2017-Apr-10 16:01N 49°11' W 122°55'0 0.0
2017-Apr-10 15:31N 49°11' W 122°55'0 0.0
2017-Apr-10 15:01N 49°11' W 122°55'0 0.0
2017-Apr-10 14:31N 49°11' W 122°55'0 0.0
2017-Apr-10 13:31N 49°11' W 122°55'0 0.0
2017-Apr-10 13:00N 49°11' W 122°55'0 0.0
2017-Apr-10 12:31N 49°11' W 122°55'0 0.0
2017-Apr-10 12:01N 49°11' W 122°55'0 0.0
2017-Apr-10 11:31N 49°11' W 122°55'  

Dump ship's entire track history